createdAt,value
2017-08-01T00:00:38.057Z,21.60
2017-08-01T00:03:06.726Z,21.50
2017-08-01T00:08:04.942Z,21.40
2017-08-01T00:10:33.219Z,21.40
2017-08-01T00:13:01.491Z,21.40
2017-08-01T00:15:29.835Z,21.30
2017-08-01T00:17:58.503Z,21.30
2017-08-01T00:20:27.544Z,21.20
2017-08-01T00:22:55.920Z,21.20
2017-08-01T00:25:24.203Z,21.20
2017-08-01T00:27:52.508Z,21.20
2017-08-01T00:35:20.999Z,21.20
2017-08-01T00:37:49.329Z,21.10
2017-08-01T00:40:18.366Z,21.10
2017-08-01T00:42:46.643Z,21.10
2017-08-01T00:47:44.872Z,21.10
2017-08-01T00:50:13.143Z,21.00
2017-08-01T00:52:41.610Z,21.00
2017-08-01T00:55:11.026Z,21.00
2017-08-01T00:57:39.311Z,20.90
2017-08-01T01:02:37.555Z,20.80
2017-08-01T01:05:05.842Z,20.80
2017-08-01T01:07:34.926Z,20.80
2017-08-01T01:10:04.341Z,20.80
2017-08-01T01:15:02.943Z,20.70
2017-08-01T01:20:01.106Z,20.60
2017-08-01T01:22:29.710Z,20.60
2017-08-01T01:24:59.496Z,20.60
2017-08-01T01:29:57.319Z,20.50
2017-08-01T01:32:26.726Z,20.50
2017-08-01T01:34:55.082Z,20.50
2017-08-01T01:37:23.382Z,20.50
2017-08-01T01:39:51.671Z,20.50
2017-08-01T01:42:20.007Z,20.50
2017-08-01T01:44:48.303Z,20.50
2017-08-01T01:47:16.578Z,20.40
2017-08-01T01:49:46.027Z,20.40
2017-08-01T01:52:14.298Z,20.40
2017-08-01T01:54:42.974Z,20.40
2017-08-01T01:57:13.143Z,20.40
2017-08-01T01:59:42.186Z,20.50
2017-08-01T02:02:11.235Z,20.50
2017-08-01T02:04:40.350Z,20.40
2017-08-01T02:07:08.624Z,20.50
2017-08-01T02:09:38.404Z,20.50
2017-08-01T02:12:07.011Z,20.40
2017-08-01T02:14:36.794Z,20.50
2017-08-01T02:17:05.063Z,20.50
2017-08-01T02:19:33.733Z,20.40
2017-08-01T02:22:03.143Z,20.40
2017-08-01T02:24:31.422Z,20.30
2017-08-01T02:26:59.747Z,20.20
2017-08-01T02:29:29.531Z,20.20
2017-08-01T02:31:57.811Z,20.20
2017-08-01T02:34:27.167Z,20.20
2017-08-01T02:36:56.259Z,20.20
2017-08-01T02:39:24.564Z,20.20
2017-08-01T02:41:52.919Z,20.20
2017-08-01T02:44:21.206Z,20.20
2017-08-01T02:46:50.259Z,20.20
2017-08-01T02:51:48.909Z,20.10
2017-08-01T02:54:18.327Z,20.10
2017-08-01T02:56:46.663Z,20.10
2017-08-01T03:01:47.263Z,20.10
2017-08-01T03:04:15.535Z,20.20
2017-08-01T03:06:44.950Z,20.20
2017-08-01T03:09:13.276Z,20.10
2017-08-01T03:11:41.550Z,20.10
2017-08-01T03:14:10.622Z,20.10
2017-08-01T03:16:40.130Z,20.10
2017-08-01T03:21:38.326Z,20.10
2017-08-01T03:24:06.795Z,20.20
2017-08-01T03:26:35.070Z,20.10
2017-08-01T03:31:34.023Z,20.10
2017-08-01T03:36:32.558Z,20.00
2017-08-01T03:41:30.402Z,19.90
2017-08-01T03:43:59.447Z,19.90
2017-08-01T03:46:27.794Z,19.90
2017-08-01T03:48:56.079Z,19.90
2017-08-01T03:51:25.129Z,19.90
2017-08-01T03:53:53.469Z,19.90
2017-08-01T03:56:21.758Z,19.90
2017-08-01T03:58:50.057Z,19.90
2017-08-01T04:01:18.391Z,19.90
2017-08-01T04:03:46.823Z,19.90
2017-08-01T04:06:15.863Z,19.90
2017-08-01T04:08:44.951Z,19.80
2017-08-01T04:11:13.995Z,19.90
2017-08-01T04:13:42.274Z,19.80
2017-08-01T04:16:10.927Z,19.80
2017-08-01T04:18:40.342Z,19.80
2017-08-01T04:23:38.598Z,19.80
2017-08-01T04:26:06.875Z,19.80
2017-08-01T04:28:35.146Z,19.80
2017-08-01T04:31:03.528Z,19.80
2017-08-01T04:33:31.806Z,19.80
2017-08-01T04:36:01.595Z,19.70
2017-08-01T04:41:00.095Z,19.70
2017-08-01T04:45:58.306Z,19.70
2017-08-01T04:48:26.583Z,19.70
2017-08-01T04:50:55.644Z,19.70
2017-08-01T04:53:24.006Z,19.70
2017-08-01T04:55:52.298Z,19.70
2017-08-01T05:00:50.487Z,19.60
2017-08-01T05:03:19.049Z,19.60
2017-08-01T05:05:48.454Z,19.60
2017-08-01T05:08:18.823Z,19.60
2017-08-01T05:10:48.599Z,19.70
2017-08-01T05:13:16.878Z,19.70
2017-08-01T05:15:45.958Z,19.70
2017-08-01T05:18:15.370Z,19.70
2017-08-01T05:20:43.642Z,19.80
2017-08-01T05:25:42.246Z,19.80
2017-08-01T05:28:10.527Z,19.80
2017-08-01T05:30:39.650Z,19.90
2017-08-01T05:33:07.926Z,20.00
2017-08-01T05:35:37.714Z,20.00
2017-08-01T05:38:06.038Z,20.00
2017-08-01T05:43:04.216Z,20.00
2017-08-01T05:45:32.555Z,20.00
2017-08-01T05:48:00.827Z,20.10
2017-08-01T05:50:30.238Z,20.10
2017-08-01T05:52:58.612Z,20.20
2017-08-01T05:55:26.938Z,20.20
2017-08-01T06:00:25.595Z,20.30
2017-08-01T06:02:53.903Z,20.40
2017-08-01T06:05:22.214Z,20.50
2017-08-01T06:07:51.328Z,20.50
2017-08-01T06:10:20.423Z,20.60
2017-08-01T06:12:48.707Z,20.60
2017-08-01T06:15:17.443Z,20.70
2017-08-01T06:20:15.627Z,20.90
2017-08-01T06:22:43.963Z,20.90
2017-08-01T06:27:42.874Z,21.00
2017-08-01T06:30:11.506Z,21.10
2017-08-01T06:32:40.192Z,21.10
2017-08-01T06:35:08.484Z,21.20
2017-08-01T06:37:36.815Z,21.30
2017-08-01T06:40:05.124Z,21.30
2017-08-01T06:42:33.427Z,21.30
2017-08-01T06:47:31.687Z,21.50
2017-08-01T06:50:01.094Z,21.50
2017-08-01T06:52:30.195Z,21.50
2017-08-01T06:54:59.258Z,21.60
2017-08-01T06:57:27.547Z,21.60
2017-08-01T06:59:55.895Z,21.70
2017-08-01T07:02:24.191Z,21.80
2017-08-01T07:04:53.640Z,21.70
2017-08-01T07:07:22.394Z,21.70
2017-08-01T07:09:50.691Z,21.70
2017-08-01T07:12:20.264Z,21.70
2017-08-01T07:14:48.607Z,21.70
2017-08-01T07:19:46.807Z,21.70
2017-08-01T07:22:15.161Z,21.80
2017-08-01T07:24:43.438Z,21.70
2017-08-01T07:29:41.967Z,21.70
2017-08-01T07:32:10.250Z,21.80
2017-08-01T07:34:38.935Z,21.80
2017-08-01T07:37:07.275Z,21.80
2017-08-01T07:39:35.566Z,21.80
2017-08-01T07:42:03.850Z,21.80
2017-08-01T07:44:33.682Z,21.90
2017-08-01T07:47:01.963Z,21.90
2017-08-01T07:49:30.238Z,21.90
2017-08-01T07:51:58.590Z,21.90
2017-08-01T07:54:26.934Z,22.00
2017-08-01T07:56:55.999Z,22.00
2017-08-01T07:59:25.243Z,22.00
2017-08-01T08:01:54.700Z,22.10
2017-08-01T08:04:23.012Z,22.10
2017-08-01T08:06:51.364Z,22.20
2017-08-01T08:09:19.682Z,22.20
2017-08-01T08:11:48.730Z,22.20
2017-08-01T08:14:17.831Z,22.20
2017-08-01T08:16:46.880Z,22.20
2017-08-01T08:19:15.159Z,22.20
2017-08-01T08:21:44.255Z,22.20
2017-08-01T08:24:13.302Z,22.20
2017-08-01T08:29:11.537Z,22.20
2017-08-01T08:31:39.843Z,22.20
2017-08-01T08:34:08.130Z,22.10
2017-08-01T08:36:36.767Z,22.10
2017-08-01T08:39:06.183Z,22.20
2017-08-01T08:41:34.471Z,22.00
2017-08-01T08:44:02.820Z,22.10
2017-08-01T08:49:01.036Z,22.00
2017-08-01T08:53:59.448Z,22.00
2017-08-01T08:58:58.790Z,22.00
2017-08-01T09:03:56.973Z,22.00
2017-08-01T09:06:25.333Z,22.00
2017-08-01T09:08:53.635Z,22.10
2017-08-01T09:11:22.333Z,22.10
2017-08-01T09:13:51.828Z,22.10
2017-08-01T09:16:20.135Z,22.10
2017-08-01T09:18:48.415Z,22.20
2017-08-01T09:21:16.768Z,22.20
2017-08-01T09:23:45.052Z,22.30
2017-08-01T09:26:14.467Z,22.30
2017-08-01T09:28:42.806Z,22.30
2017-08-01T09:31:11.090Z,22.30
2017-08-01T09:33:39.382Z,22.40
2017-08-01T09:36:08.494Z,22.40
2017-08-01T09:38:36.766Z,22.50
2017-08-01T09:41:05.806Z,22.50
2017-08-01T09:43:34.910Z,22.50
2017-08-01T09:46:03.190Z,22.60
2017-08-01T09:48:31.470Z,22.70
2017-08-01T09:50:59.796Z,22.80
2017-08-01T09:53:28.079Z,22.90
2017-08-01T09:55:56.378Z,22.90
2017-08-01T09:58:24.734Z,23.00
2017-08-01T10:00:53.783Z,23.20
2017-08-01T10:03:22.093Z,23.40
2017-08-01T10:05:50.455Z,23.50
2017-08-01T10:08:18.731Z,23.60
2017-08-01T10:13:21.781Z,23.80
2017-08-01T10:15:50.476Z,23.90
2017-08-01T10:18:19.523Z,24.00
2017-08-01T10:20:48.645Z,24.10
2017-08-01T10:23:17.842Z,24.20
2017-08-01T10:25:46.890Z,24.20
2017-08-01T10:28:15.223Z,24.30
2017-08-01T10:30:45.015Z,24.50
2017-08-01T10:33:13.295Z,24.50
2017-08-01T10:35:42.018Z,24.70
2017-08-01T10:38:10.316Z,24.70
2017-08-01T10:40:39.369Z,24.80
2017-08-01T10:43:07.710Z,24.80
2017-08-01T10:45:35.994Z,24.80
2017-08-01T10:48:04.272Z,24.80
2017-08-01T10:50:32.598Z,24.80
2017-08-01T10:53:00.886Z,24.80
2017-08-01T10:55:29.176Z,24.70
2017-08-01T10:57:57.504Z,24.70
2017-08-01T11:00:26.564Z,24.70
2017-08-01T11:02:55.638Z,24.60
2017-08-01T11:05:24.743Z,24.60
2017-08-01T11:07:53.031Z,24.50
2017-08-01T11:10:21.327Z,24.50
2017-08-01T11:12:49.706Z,24.50
2017-08-01T11:15:19.123Z,24.50
2017-08-01T11:17:47.407Z,24.50
2017-08-01T11:20:16.499Z,24.60
2017-08-01T11:22:45.547Z,24.70
2017-08-01T11:25:13.844Z,24.80
2017-08-01T11:27:42.170Z,24.90
2017-08-01T11:30:10.460Z,25.00
2017-08-01T11:32:38.744Z,25.00
2017-08-01T11:35:07.059Z,25.00
2017-08-01T11:37:36.106Z,25.00
2017-08-01T11:40:05.159Z,25.10
2017-08-01T11:42:33.502Z,25.00
2017-08-01T11:45:02.179Z,25.00
2017-08-01T11:47:30.462Z,25.00
2017-08-01T11:49:58.794Z,24.90
2017-08-01T11:52:27.078Z,24.90
2017-08-01T11:54:55.372Z,24.80
2017-08-01T11:57:23.875Z,24.80
2017-08-01T11:59:52.944Z,24.80
2017-08-01T12:02:21.240Z,24.80
2017-08-01T12:04:49.570Z,24.70
2017-08-01T12:09:47.792Z,24.50
2017-08-01T12:12:16.119Z,24.40
2017-08-01T12:14:44.402Z,24.40
2017-08-01T12:17:13.092Z,24.40
2017-08-01T12:19:42.975Z,24.30
2017-08-01T12:22:12.027Z,24.30
2017-08-01T12:24:41.109Z,24.20
2017-08-01T12:27:09.480Z,24.10
2017-08-01T12:29:38.155Z,24.10
2017-08-01T12:32:06.830Z,24.10
2017-08-01T12:34:35.163Z,24.00
2017-08-01T12:37:04.583Z,23.90
2017-08-01T12:39:32.867Z,23.90
2017-08-01T12:42:01.490Z,23.90
2017-08-01T12:44:30.910Z,23.90
2017-08-01T12:46:59.202Z,23.90
2017-08-01T12:49:27.520Z,23.90
2017-08-01T12:51:55.814Z,23.90
2017-08-01T12:54:24.122Z,23.90
2017-08-01T13:01:52.672Z,24.00
2017-08-01T13:04:21.031Z,24.00
2017-08-01T13:06:50.127Z,24.10
2017-08-01T13:09:18.402Z,24.10
2017-08-01T13:11:48.226Z,24.10
2017-08-01T13:14:16.502Z,24.20
2017-08-01T13:16:44.771Z,24.20
2017-08-01T13:19:13.087Z,24.30
2017-08-01T13:21:41.371Z,24.30
2017-08-01T13:24:09.661Z,24.30
2017-08-01T13:26:37.979Z,24.40
2017-08-01T13:29:06.255Z,24.40
2017-08-01T13:31:35.299Z,24.50
2017-08-01T13:34:03.643Z,24.50
2017-08-01T13:36:31.911Z,24.60
2017-08-01T13:39:00.182Z,24.60
2017-08-01T13:41:28.499Z,24.60
2017-08-01T13:43:56.790Z,24.60
2017-08-01T13:46:25.846Z,24.60
2017-08-01T13:48:54.468Z,24.70
2017-08-01T13:51:23.888Z,24.80
2017-08-01T13:53:52.187Z,24.80
2017-08-01T13:56:20.535Z,24.80
2017-08-01T13:58:48.815Z,24.80
2017-08-01T14:01:17.082Z,24.90
2017-08-01T14:03:45.402Z,24.90
2017-08-01T14:06:14.815Z,25.00
2017-08-01T14:08:43.091Z,24.90
2017-08-01T14:11:11.439Z,25.00
2017-08-01T14:13:39.715Z,25.00
2017-08-01T14:16:07.995Z,25.10
2017-08-01T14:21:06.206Z,25.10
2017-08-01T14:23:34.482Z,25.20
2017-08-01T14:26:03.570Z,25.10
2017-08-01T14:28:32.624Z,25.10
2017-08-01T14:31:00.898Z,25.10
2017-08-01T14:33:30.012Z,25.00
2017-08-01T14:35:58.283Z,25.00
2017-08-01T14:38:26.579Z,25.00
2017-08-01T14:40:55.792Z,24.90
2017-08-01T14:43:24.478Z,24.90
2017-08-01T14:48:23.090Z,24.90
2017-08-01T14:50:51.384Z,24.80
2017-08-01T14:53:19.671Z,24.80
2017-08-01T14:55:48.274Z,24.80
2017-08-01T14:58:17.694Z,24.80
2017-08-01T15:00:45.975Z,24.80
2017-08-01T15:03:14.303Z,24.80
2017-08-01T15:05:43.355Z,24.80
2017-08-01T15:08:11.655Z,24.80
2017-08-01T15:10:40.784Z,24.80
2017-08-01T15:13:09.856Z,24.70
2017-08-01T15:18:08.090Z,24.70
2017-08-01T15:20:36.371Z,24.60
2017-08-01T15:23:04.644Z,24.60
2017-08-01T15:25:32.970Z,24.60
2017-08-01T15:28:01.247Z,24.50
2017-08-01T15:30:29.514Z,24.50
2017-08-01T15:32:58.609Z,24.40
2017-08-01T15:35:26.891Z,24.40
2017-08-01T15:37:55.189Z,24.30
2017-08-01T15:40:23.543Z,24.00
2017-08-01T15:42:51.834Z,24.00
2017-08-01T15:45:20.110Z,23.80
2017-08-01T15:47:49.222Z,23.70
2017-08-01T15:50:18.266Z,23.50
2017-08-01T15:52:47.315Z,23.40
2017-08-01T15:55:15.671Z,23.30
2017-08-01T15:57:43.960Z,23.20
2017-08-01T16:00:12.244Z,23.10
2017-08-01T16:02:42.080Z,23.00
2017-08-01T16:05:11.875Z,23.00
2017-08-01T16:07:40.174Z,22.90
2017-08-01T16:10:08.520Z,22.90
2017-08-01T16:12:36.802Z,22.80
2017-08-01T16:15:05.088Z,22.80
2017-08-01T16:17:33.766Z,22.70
2017-08-01T16:20:03.179Z,22.60
2017-08-01T16:22:31.452Z,22.60
2017-08-01T16:24:59.771Z,22.50
2017-08-01T16:27:28.043Z,22.50
2017-08-01T16:29:57.082Z,22.40
2017-08-01T16:32:25.423Z,22.40
2017-08-01T16:34:54.484Z,22.40
2017-08-01T16:39:53.839Z,22.40
2017-08-01T16:42:22.131Z,22.30
2017-08-01T16:44:50.425Z,22.30
2017-08-01T16:47:18.744Z,22.30
2017-08-01T16:49:48.150Z,22.30
2017-08-01T16:52:17.563Z,22.30
2017-08-01T16:54:46.271Z,22.20
2017-08-01T16:57:14.543Z,22.20
2017-08-01T16:59:43.578Z,22.20
2017-08-01T17:02:13.051Z,22.20
2017-08-01T17:04:41.336Z,22.20
2017-08-01T17:07:09.610Z,22.20
2017-08-01T17:09:37.923Z,22.20
2017-08-01T17:12:06.960Z,22.20
2017-08-01T17:14:35.227Z,22.20
2017-08-01T17:17:03.855Z,22.20
2017-08-01T17:19:33.268Z,22.20
2017-08-01T17:22:01.538Z,22.20
2017-08-01T17:26:59.750Z,22.10
2017-08-01T17:29:28.018Z,22.00
2017-08-01T17:31:56.344Z,22.00
2017-08-01T17:34:25.021Z,22.00
2017-08-01T17:36:53.317Z,22.00
2017-08-01T17:39:22.418Z,21.90
2017-08-01T17:41:50.705Z,21.90
2017-08-01T17:44:19.763Z,21.90
2017-08-01T17:46:49.239Z,21.90
2017-08-01T17:49:17.507Z,21.80
2017-08-01T17:51:45.779Z,21.80
2017-08-01T17:54:14.862Z,21.80
2017-08-01T17:56:43.135Z,21.80
2017-08-01T17:59:11.415Z,21.80
2017-08-01T18:01:41.239Z,21.80
2017-08-01T18:04:09.513Z,21.80
2017-08-01T18:06:37.786Z,21.70
2017-08-01T18:09:06.122Z,21.70
2017-08-01T18:11:34.391Z,21.70
2017-08-01T18:14:02.658Z,21.70
2017-08-01T18:16:31.270Z,21.70
2017-08-01T18:19:00.314Z,21.70
2017-08-01T18:21:28.591Z,21.70
2017-08-01T18:23:56.951Z,21.70
2017-08-01T18:26:25.227Z,21.70
2017-08-01T18:28:53.525Z,21.70
2017-08-01T18:31:21.852Z,21.60
2017-08-01T18:33:50.902Z,21.60
2017-08-01T18:36:19.969Z,21.50
2017-08-01T18:38:49.046Z,21.50
2017-08-01T18:41:17.314Z,21.50
2017-08-01T18:43:45.988Z,21.50
2017-08-01T18:46:15.439Z,21.40
2017-08-01T18:48:43.710Z,21.40
2017-08-01T18:51:11.987Z,21.30
2017-08-01T18:53:40.984Z,21.30
2017-08-01T18:56:09.672Z,21.20
2017-08-01T18:58:37.947Z,21.20
2017-08-01T19:01:06.298Z,21.10
2017-08-01T19:03:34.570Z,21.10
2017-08-01T19:06:02.843Z,21.10
2017-08-01T19:11:01.058Z,21.10
2017-08-01T19:13:29.330Z,21.10
2017-08-01T19:15:57.649Z,21.20
2017-08-01T19:18:25.930Z,21.20
2017-08-01T19:20:54.987Z,21.10
2017-08-01T19:23:24.927Z,21.10
2017-08-01T19:28:23.151Z,21.10
2017-08-01T19:30:51.580Z,21.10
2017-08-01T19:33:20.884Z,21.10
2017-08-01T19:38:20.341Z,21.00
2017-08-01T19:40:48.623Z,21.00
2017-08-01T19:43:16.891Z,20.90
2017-08-01T19:45:46.418Z,20.90
2017-08-01T19:48:14.683Z,20.90
2017-08-01T19:50:42.960Z,20.80
2017-08-01T19:53:11.579Z,20.80
2017-08-01T19:55:40.250Z,20.80
2017-08-01T19:58:09.670Z,20.70
2017-08-01T20:08:07.340Z,20.60
2017-08-01T20:10:35.614Z,20.60
2017-08-01T20:13:05.394Z,20.60
2017-08-01T20:15:34.120Z,20.50
2017-08-01T20:18:03.532Z,20.50
2017-08-01T20:20:31.808Z,20.40
2017-08-01T20:23:00.129Z,20.40
2017-08-01T20:25:28.408Z,20.30
2017-08-01T20:27:58.195Z,20.20
2017-08-01T20:30:27.427Z,20.20
2017-08-01T20:32:56.855Z,20.10
2017-08-01T20:35:26.301Z,20.10
2017-08-01T20:37:55.404Z,20.10
2017-08-01T20:42:54.862Z,20.00
2017-08-01T20:47:53.000Z,19.90
2017-08-01T20:50:23.202Z,19.80
2017-08-01T20:52:53.077Z,19.80
2017-08-01T20:55:21.425Z,19.70
2017-08-01T20:57:49.795Z,19.70
2017-08-01T21:00:18.084Z,19.60
2017-08-01T21:02:47.130Z,19.60
2017-08-01T21:05:15.884Z,19.60
2017-08-01T21:07:44.166Z,19.60
2017-08-01T21:10:12.450Z,19.50
2017-08-01T21:12:41.965Z,19.50
2017-08-01T21:15:10.656Z,19.50
2017-08-01T21:17:38.948Z,19.40
2017-08-01T21:20:07.287Z,19.40
2017-08-01T21:22:36.341Z,19.30
2017-08-01T21:25:04.623Z,19.30
2017-08-01T21:27:32.963Z,19.20
2017-08-01T21:30:02.747Z,19.20
2017-08-01T21:32:31.790Z,19.10
2017-08-01T21:35:00.531Z,19.10
2017-08-01T21:37:28.818Z,19.10
2017-08-01T21:39:57.119Z,19.10
2017-08-01T21:42:26.263Z,19.00
2017-08-01T21:44:55.463Z,19.10
2017-08-01T21:47:24.544Z,19.10
2017-08-01T21:50:30.323Z,19.10
2017-08-01T21:52:58.612Z,19.10
2017-08-01T21:55:26.922Z,19.10
2017-08-01T22:00:25.948Z,19.00
2017-08-01T22:02:54.264Z,19.00
2017-08-01T22:05:22.624Z,19.00
2017-08-01T22:07:52.447Z,19.00
2017-08-01T22:10:20.764Z,18.90
2017-08-01T22:12:51.008Z,18.90
2017-08-01T22:15:19.300Z,18.90
2017-08-01T22:17:47.594Z,18.90
2017-08-01T22:20:16.195Z,18.90
2017-08-01T22:22:44.884Z,18.80
2017-08-01T22:27:44.547Z,18.80
2017-08-01T22:30:12.827Z,18.80
2017-08-01T22:32:41.516Z,18.70
2017-08-01T22:35:10.250Z,18.70
2017-08-01T22:37:38.553Z,18.70
2017-08-01T22:40:06.839Z,18.60
2017-08-01T22:45:06.209Z,18.50
2017-08-01T22:47:35.265Z,18.60
2017-08-01T22:50:03.607Z,18.60
2017-08-01T22:52:32.662Z,18.60
2017-08-01T22:55:00.954Z,18.50
2017-08-01T22:57:29.283Z,18.50
2017-08-01T22:59:57.572Z,18.50
2017-08-01T23:02:27.002Z,18.50
2017-08-01T23:04:55.338Z,18.50
2017-08-01T23:09:53.184Z,18.50
2017-08-01T23:12:21.856Z,18.50
2017-08-01T23:14:50.171Z,18.40
2017-08-01T23:17:19.961Z,18.50
2017-08-01T23:19:48.288Z,18.40
2017-08-01T23:22:16.574Z,18.50
2017-08-01T23:24:44.858Z,18.50
2017-08-01T23:27:13.980Z,18.50
2017-08-01T23:32:12.181Z,18.50
2017-08-01T23:34:40.526Z,18.50
2017-08-01T23:37:08.822Z,18.40
2017-08-01T23:39:37.100Z,18.40
2017-08-01T23:42:05.447Z,18.40
2017-08-01T23:47:04.003Z,18.30
2017-08-01T23:49:33.099Z,18.40
2017-08-01T23:52:02.142Z,18.30
2017-08-01T23:54:31.558Z,18.30
2017-08-01T23:56:59.898Z,18.30
2017-08-01T23:59:28.190Z,18.30
